createdAt,value
2023-03-05T00:00:50.266Z,64.97
2023-03-05T00:01:54.191Z,57.08
2023-03-05T00:02:58.229Z,52.70
2023-03-05T00:04:02.665Z,51.28
2023-03-05T00:05:07.028Z,58.63
2023-03-05T00:06:10.936Z,55.30
2023-03-05T00:07:14.894Z,58.85
2023-03-05T00:08:18.698Z,61.28
2023-03-05T00:09:22.495Z,57.15
2023-03-05T00:10:25.930Z,62.28
2023-03-05T00:11:30.840Z,68.05
2023-03-05T00:12:34.475Z,56.28
2023-03-05T00:13:38.198Z,52.88
2023-03-05T00:14:41.583Z,42.92
2023-03-05T00:15:45.257Z,46.58
2023-03-05T00:16:48.714Z,48.58
2023-03-05T00:17:52.358Z,50.53
2023-03-05T00:18:56.648Z,46.28
2023-03-05T00:20:02.264Z,43.00
2023-03-05T00:21:06.981Z,38.10
2023-03-05T00:22:10.374Z,45.92
2023-03-05T00:23:14.672Z,43.50
2023-03-05T00:24:19.202Z,45.55
2023-03-05T00:25:23.083Z,44.63
2023-03-05T00:26:27.843Z,42.95
2023-03-05T00:27:31.767Z,41.40
2023-03-05T00:28:35.756Z,47.22
2023-03-05T00:29:39.396Z,42.38
2023-03-05T00:30:42.833Z,38.72
2023-03-05T00:31:46.871Z,43.15
2023-03-05T00:32:50.409Z,38.90
2023-03-05T00:33:55.681Z,35.83
2023-03-05T00:34:59.483Z,38.15
2023-03-05T00:36:07.238Z,39.45
2023-03-05T00:37:11.225Z,34.55
2023-03-05T00:38:15.319Z,33.30
2023-03-05T00:39:20.320Z,30.25
2023-03-05T00:40:23.952Z,28.88
2023-03-05T00:41:28.026Z,24.83
2023-03-05T00:42:31.641Z,28.42
2023-03-05T00:43:35.045Z,23.45
2023-03-05T00:44:38.538Z,25.15
2023-03-05T00:45:42.890Z,28.45
2023-03-05T00:46:46.973Z,24.52
2023-03-05T00:47:51.029Z,21.55
2023-03-05T00:48:55.703Z,18.35
2023-03-05T00:49:59.597Z,27.52
2023-03-05T00:51:03.662Z,20.08
2023-03-05T00:52:07.210Z,22.33
2023-03-05T00:53:10.668Z,20.42
2023-03-05T00:54:14.735Z,19.08
2023-03-05T00:55:18.352Z,20.02
2023-03-05T00:56:22.300Z,17.20
2023-03-05T00:57:26.314Z,18.30
2023-03-05T00:58:30.352Z,14.45
2023-03-05T00:59:34.369Z,17.30
2023-03-05T01:00:38.473Z,20.40
2023-03-05T01:01:42.784Z,23.20
2023-03-05T01:02:46.392Z,17.10
2023-03-05T01:03:50.493Z,17.70
2023-03-05T01:04:54.062Z,16.63
2023-03-05T01:05:57.982Z,17.23
2023-03-05T01:07:02.136Z,17.83
2023-03-05T01:08:05.976Z,17.60
2023-03-05T01:09:09.929Z,18.20
2023-03-05T01:10:13.740Z,17.10
2023-03-05T01:11:17.404Z,16.42
2023-03-05T01:12:20.777Z,17.83
2023-03-05T01:13:24.747Z,15.50
2023-03-05T01:14:29.285Z,18.77
2023-03-05T01:15:33.555Z,15.70
2023-03-05T01:16:37.644Z,16.10
2023-03-05T01:17:41.033Z,15.38
2023-03-05T01:18:45.067Z,17.95
2023-03-05T01:19:49.072Z,16.02
2023-03-05T01:20:52.987Z,17.20
2023-03-05T01:21:57.057Z,17.60
2023-03-05T01:23:02.601Z,19.77
2023-03-05T01:24:07.049Z,19.90
2023-03-05T01:25:10.863Z,21.38
2023-03-05T01:26:14.760Z,21.10
2023-03-05T01:27:18.684Z,23.88
2023-03-05T01:28:22.728Z,19.33
2023-03-05T01:29:26.579Z,16.58
2023-03-05T01:30:30.108Z,19.67
2023-03-05T01:31:34.451Z,24.23
2023-03-05T01:32:38.046Z,21.30
2023-03-05T01:33:41.629Z,27.05
2023-03-05T01:34:45.707Z,20.08
2023-03-05T01:35:49.980Z,18.38
2023-03-05T01:36:54.571Z,24.23
2023-03-05T01:37:58.641Z,21.27
2023-03-05T01:39:03.603Z,23.08
2023-03-05T01:40:08.397Z,21.05
2023-03-05T01:41:12.479Z,19.10
2023-03-05T01:42:16.322Z,21.00
2023-03-05T01:43:25.732Z,21.00
2023-03-05T01:44:30.421Z,20.37
2023-03-05T01:45:34.299Z,19.98
2023-03-05T01:46:40.839Z,20.40
2023-03-05T01:47:45.209Z,21.05
2023-03-05T01:49:00.444Z,28.95
2023-03-05T01:50:04.516Z,23.42
2023-03-05T01:51:07.952Z,24.63
2023-03-05T01:52:18.296Z,19.70
2023-03-05T01:53:22.348Z,18.05
2023-03-05T01:54:29.427Z,22.73
2023-03-05T01:55:33.905Z,20.38
2023-03-05T01:56:37.520Z,19.08
2023-03-05T01:57:49.121Z,18.88
2023-03-05T01:58:52.797Z,20.42
2023-03-05T02:00:03.703Z,25.67
2023-03-05T02:01:27.173Z,24.23
2023-03-05T02:02:30.953Z,24.48
2023-03-05T02:03:34.989Z,19.70
2023-03-05T02:04:54.869Z,21.02
2023-03-05T02:05:58.919Z,21.25
2023-03-05T02:07:02.483Z,19.45
2023-03-05T02:08:07.800Z,21.15
2023-03-05T02:09:11.692Z,21.30
2023-03-05T02:10:26.891Z,19.88
2023-03-05T02:11:31.006Z,22.05
2023-03-05T02:12:34.970Z,19.50
2023-03-05T02:13:41.718Z,19.27
2023-03-05T02:14:47.139Z,21.10
2023-03-05T02:15:51.482Z,20.10
2023-03-05T02:16:55.631Z,23.00
2023-03-05T02:17:59.411Z,22.55
2023-03-05T02:19:05.023Z,18.25
2023-03-05T02:20:25.837Z,22.17
2023-03-05T02:21:37.289Z,20.67
2023-03-05T02:22:41.157Z,20.92
2023-03-05T02:23:45.517Z,21.58
2023-03-05T02:24:49.126Z,19.33
2023-03-05T02:25:53.071Z,21.35
2023-03-05T02:26:57.214Z,20.75
2023-03-05T02:28:08.631Z,21.27
2023-03-05T02:29:22.590Z,21.70
2023-03-05T02:30:26.594Z,20.05
2023-03-05T02:31:31.545Z,19.65
2023-03-05T02:32:35.313Z,17.42
2023-03-05T02:33:39.114Z,17.73
2023-03-05T02:34:42.840Z,17.08
2023-03-05T02:35:47.289Z,20.90
2023-03-05T02:36:51.709Z,18.55
2023-03-05T02:37:56.396Z,16.77
2023-03-05T02:39:00.436Z,16.33
2023-03-05T02:40:04.341Z,18.58
2023-03-05T02:41:08.286Z,21.13
2023-03-05T02:42:12.136Z,17.85
2023-03-05T02:43:16.175Z,20.08
2023-03-05T02:44:19.685Z,17.52
2023-03-05T02:45:23.108Z,18.70
2023-03-05T02:46:27.309Z,19.00
2023-03-05T02:47:30.880Z,15.05
2023-03-05T02:48:34.970Z,20.13
2023-03-05T02:49:38.956Z,17.02
2023-03-05T02:50:43.105Z,18.80
2023-03-05T02:51:47.163Z,18.55
2023-03-05T02:52:50.709Z,19.13
2023-03-05T02:53:54.857Z,16.95
2023-03-05T02:55:01.274Z,19.27
2023-03-05T02:56:06.974Z,19.30
2023-03-05T02:57:11.945Z,18.13
2023-03-05T02:58:15.805Z,16.83
2023-03-05T02:59:19.733Z,13.55
2023-03-05T03:00:23.984Z,15.43
2023-03-05T03:01:28.940Z,13.23
2023-03-05T03:02:33.318Z,15.93
2023-03-05T03:03:37.695Z,16.13
2023-03-05T03:04:41.269Z,14.43
2023-03-05T03:05:44.767Z,16.63
2023-03-05T03:06:48.716Z,13.48
2023-03-05T03:07:52.341Z,13.63
2023-03-05T03:08:55.778Z,18.83
2023-03-05T03:09:59.670Z,18.50
2023-03-05T03:11:12.067Z,14.68
2023-03-05T03:12:15.967Z,12.43
2023-03-05T03:13:19.948Z,15.00
2023-03-05T03:14:24.641Z,13.32
2023-03-05T03:15:28.534Z,15.57
2023-03-05T03:16:32.549Z,14.10
2023-03-05T03:17:36.881Z,13.27
2023-03-05T03:18:40.692Z,14.88
2023-03-05T03:19:44.788Z,12.70
2023-03-05T03:20:48.204Z,11.88
2023-03-05T03:21:51.808Z,14.93
2023-03-05T03:22:55.692Z,16.92
2023-03-05T03:23:59.650Z,10.15
2023-03-05T03:25:03.511Z,14.02
2023-03-05T03:26:07.718Z,12.45
2023-03-05T03:27:11.897Z,8.90
2023-03-05T03:28:15.896Z,14.32
2023-03-05T03:29:19.447Z,14.23
2023-03-05T03:30:23.272Z,11.85
2023-03-05T03:31:26.848Z,10.00
2023-03-05T03:32:31.000Z,11.70
2023-03-05T03:33:35.063Z,9.38
2023-03-05T03:34:39.023Z,9.85
2023-03-05T03:35:42.957Z,9.57
2023-03-05T03:36:47.219Z,11.40
2023-03-05T03:37:51.247Z,11.55
2023-03-05T03:38:55.189Z,12.75
2023-03-05T03:39:59.077Z,6.80
2023-03-05T03:41:03.075Z,7.88
2023-03-05T03:42:07.265Z,6.65
2023-03-05T03:43:11.274Z,13.38
2023-03-05T03:44:14.939Z,9.30
2023-03-05T03:45:18.431Z,7.18
2023-03-05T03:46:21.964Z,6.25
2023-03-05T03:47:25.510Z,9.27
2023-03-05T03:48:28.956Z,8.07
2023-03-05T03:49:32.347Z,9.40
2023-03-05T03:50:38.736Z,6.07
2023-03-05T03:51:42.498Z,7.20
2023-03-05T03:52:46.040Z,8.43
2023-03-05T03:53:49.654Z,9.32
2023-03-05T03:54:53.675Z,9.27
2023-03-05T03:56:00.402Z,8.90
2023-03-05T03:57:04.672Z,9.93
2023-03-05T03:58:08.185Z,8.48
2023-03-05T03:59:12.097Z,9.88
2023-03-05T04:00:16.548Z,11.95
2023-03-05T04:01:21.327Z,9.90
2023-03-05T04:02:25.231Z,10.25
2023-03-05T04:03:28.912Z,9.65
2023-03-05T04:04:32.462Z,9.80
2023-03-05T04:05:36.362Z,8.05
2023-03-05T04:06:39.899Z,5.22
2023-03-05T04:07:43.270Z,6.07
2023-03-05T04:08:47.109Z,4.90
2023-03-05T04:09:50.735Z,6.10
2023-03-05T04:10:54.217Z,9.18
2023-03-05T04:11:57.789Z,9.02
2023-03-05T04:13:01.216Z,4.78
2023-03-05T04:14:06.503Z,5.60
2023-03-05T04:15:10.879Z,6.60
2023-03-05T04:16:15.390Z,6.72
2023-03-05T04:17:19.322Z,8.75
2023-03-05T04:18:23.195Z,5.28
2023-03-05T04:19:27.071Z,6.38
2023-03-05T04:20:30.684Z,11.05
2023-03-05T04:21:34.087Z,7.60
2023-03-05T04:22:38.270Z,8.48
2023-03-05T04:23:42.074Z,7.32
2023-03-05T04:24:45.984Z,8.18
2023-03-05T04:25:49.640Z,6.97
2023-03-05T04:26:53.467Z,11.95
2023-03-05T04:27:57.032Z,8.38
2023-03-05T04:29:01.015Z,5.72
2023-03-05T04:30:05.260Z,12.63
2023-03-05T04:31:09.189Z,12.43
2023-03-05T04:32:12.897Z,8.52
2023-03-05T04:33:16.481Z,9.45
2023-03-05T04:34:20.250Z,9.43
2023-03-05T04:35:23.928Z,9.27
2023-03-05T04:36:27.473Z,9.73
2023-03-05T04:37:31.252Z,8.40
2023-03-05T04:38:35.147Z,8.20
2023-03-05T04:39:39.149Z,12.60
2023-03-05T04:40:43.178Z,7.72
2023-03-05T04:41:46.664Z,11.60
2023-03-05T04:42:50.207Z,9.18
2023-03-05T04:43:53.975Z,11.07
2023-03-05T04:44:57.468Z,11.55
2023-03-05T04:46:01.072Z,8.57
2023-03-05T04:47:04.621Z,10.80
2023-03-05T04:48:08.516Z,8.43
2023-03-05T04:49:12.442Z,5.75
2023-03-05T04:50:15.987Z,8.65
2023-03-05T04:51:19.447Z,8.00
2023-03-05T04:52:22.992Z,9.68
2023-03-05T04:53:26.439Z,9.13
2023-03-05T04:54:30.301Z,7.70
2023-03-05T04:55:34.269Z,7.45
2023-03-05T04:56:38.227Z,10.50
2023-03-05T04:57:42.198Z,9.98
2023-03-05T04:58:46.231Z,7.90
2023-03-05T04:59:50.152Z,7.05
2023-03-05T05:00:53.667Z,6.13
2023-03-05T05:01:57.275Z,9.52
2023-03-05T05:03:01.214Z,13.90
2023-03-05T05:04:04.929Z,10.98
2023-03-05T05:05:09.414Z,10.30
2023-03-05T05:06:12.906Z,10.23
2023-03-05T05:07:16.336Z,12.43
2023-03-05T05:08:19.910Z,10.38
2023-03-05T05:09:23.586Z,10.25
2023-03-05T05:10:27.895Z,9.65
2023-03-05T05:11:31.892Z,11.68
2023-03-05T05:12:35.949Z,10.60
2023-03-05T05:13:39.983Z,8.43
2023-03-05T05:14:44.193Z,7.90
2023-03-05T05:15:48.124Z,7.45
2023-03-05T05:16:51.776Z,7.63
2023-03-05T05:17:55.825Z,16.65
2023-03-05T05:19:00.031Z,11.35
2023-03-05T05:20:07.391Z,15.90
2023-03-05T05:21:12.069Z,11.15
2023-03-05T05:22:15.612Z,10.27
2023-03-05T05:23:19.662Z,10.73
2023-03-05T05:24:23.693Z,7.25
2023-03-05T05:25:27.177Z,11.18
2023-03-05T05:26:30.578Z,8.73
2023-03-05T05:27:34.506Z,8.00
2023-03-05T05:28:38.936Z,10.13
2023-03-05T05:29:42.570Z,10.35
2023-03-05T05:30:46.226Z,11.57
2023-03-05T05:31:50.132Z,10.35
2023-03-05T05:32:53.956Z,10.32
2023-03-05T05:33:58.046Z,13.70
2023-03-05T05:35:01.600Z,11.82
2023-03-05T05:36:07.006Z,11.48
2023-03-05T05:37:11.015Z,10.38
2023-03-05T05:38:14.979Z,13.05
2023-03-05T05:39:20.519Z,13.02
2023-03-05T05:40:24.612Z,11.57
2023-03-05T05:41:28.503Z,15.00
2023-03-05T05:42:32.432Z,10.18
2023-03-05T05:43:36.476Z,11.77
2023-03-05T05:44:40.215Z,13.60
2023-03-05T05:45:44.299Z,13.20
2023-03-05T05:46:47.898Z,14.68
2023-03-05T05:47:51.370Z,14.02
2023-03-05T05:48:55.229Z,11.85
2023-03-05T05:49:59.222Z,13.13
2023-03-05T05:51:17.703Z,16.60
2023-03-05T05:52:21.545Z,17.63
2023-03-05T05:53:25.502Z,13.68
2023-03-05T05:54:29.225Z,14.52
2023-03-05T05:55:33.057Z,14.65
2023-03-05T05:56:38.127Z,14.40
2023-03-05T05:57:42.192Z,16.92
2023-03-05T05:58:48.074Z,13.57
2023-03-05T05:59:52.320Z,16.88
2023-03-05T06:00:56.225Z,15.15
2023-03-05T06:02:00.461Z,10.98
2023-03-05T06:03:05.109Z,13.45
2023-03-05T06:04:08.792Z,18.75
2023-03-05T06:05:13.579Z,15.98
2023-03-05T06:06:18.887Z,15.32
2023-03-05T06:07:22.398Z,14.85
2023-03-05T06:08:26.213Z,15.43
2023-03-05T06:09:30.491Z,18.00
2023-03-05T06:10:34.036Z,16.85
2023-03-05T06:11:38.454Z,19.58
2023-03-05T06:12:42.375Z,20.80
2023-03-05T06:13:46.624Z,14.38
2023-03-05T06:14:50.328Z,18.83
2023-03-05T06:16:01.073Z,18.05
2023-03-05T06:17:04.898Z,14.52
2023-03-05T06:18:08.533Z,19.42
2023-03-05T06:19:16.023Z,14.38
2023-03-05T06:20:19.792Z,16.55
2023-03-05T06:21:23.986Z,15.98
2023-03-05T06:22:28.153Z,16.40
2023-03-05T06:23:32.202Z,24.02
2023-03-05T06:24:35.931Z,17.25
2023-03-05T06:25:39.396Z,16.48
2023-03-05T06:26:42.922Z,17.30
2023-03-05T06:27:46.808Z,17.13
2023-03-05T06:28:50.566Z,14.48
2023-03-05T06:29:55.016Z,20.38
2023-03-05T06:31:14.641Z,17.67
2023-03-05T06:32:18.157Z,15.40
2023-03-05T06:33:21.650Z,16.60
2023-03-05T06:34:25.473Z,14.63
2023-03-05T06:35:29.540Z,18.13
2023-03-05T06:36:33.479Z,14.90
2023-03-05T06:37:36.979Z,15.00
2023-03-05T06:38:40.599Z,17.50
2023-03-05T06:39:44.144Z,15.02
2023-03-05T06:40:47.937Z,18.75
2023-03-05T06:41:52.993Z,17.15
2023-03-05T06:42:56.908Z,17.02
2023-03-05T06:44:01.341Z,14.43
2023-03-05T06:45:05.600Z,16.52
2023-03-05T06:46:15.794Z,16.85
2023-03-05T06:47:19.814Z,12.93
2023-03-05T06:48:23.794Z,18.95
2023-03-05T06:49:27.340Z,16.58
2023-03-05T06:50:31.267Z,16.75
2023-03-05T06:51:36.165Z,16.77
2023-03-05T06:52:41.912Z,14.00
2023-03-05T06:53:47.720Z,15.48
2023-03-05T06:54:56.216Z,16.92
2023-03-05T06:56:02.269Z,15.35
2023-03-05T06:57:05.810Z,17.10
2023-03-05T06:58:09.424Z,18.30
2023-03-05T06:59:13.779Z,13.27
2023-03-05T07:00:17.985Z,14.70
2023-03-05T07:01:21.780Z,13.98
2023-03-05T07:02:25.366Z,20.50
2023-03-05T07:03:29.241Z,16.75
2023-03-05T07:04:32.804Z,13.63
2023-03-05T07:05:40.302Z,14.00
2023-03-05T07:06:43.952Z,12.18
2023-03-05T07:07:47.482Z,15.70
2023-03-05T07:08:50.948Z,12.82
2023-03-05T07:09:54.812Z,14.85
2023-03-05T07:10:58.513Z,14.05
2023-03-05T07:12:02.051Z,15.48
2023-03-05T07:13:05.925Z,16.40
2023-03-05T07:14:09.625Z,16.20
2023-03-05T07:15:13.333Z,12.90
2023-03-05T07:16:22.008Z,14.18
2023-03-05T07:17:25.645Z,15.30
2023-03-05T07:18:29.770Z,11.50
2023-03-05T07:19:34.002Z,14.27
2023-03-05T07:20:37.962Z,12.35
2023-03-05T07:21:41.374Z,14.18
2023-03-05T07:22:45.193Z,12.73
2023-03-05T07:23:49.027Z,13.00
2023-03-05T07:24:52.884Z,13.07
2023-03-05T07:25:56.516Z,10.93
2023-03-05T07:27:00.018Z,14.80
2023-03-05T07:28:05.946Z,13.25
2023-03-05T07:29:09.719Z,12.13
2023-03-05T07:30:13.759Z,12.30
2023-03-05T07:31:22.455Z,12.38
2023-03-05T07:32:26.699Z,15.52
2023-03-05T07:33:30.655Z,9.10
2023-03-05T07:34:34.526Z,10.65
2023-03-05T07:35:42.343Z,10.95
2023-03-05T07:36:46.364Z,13.20
2023-03-05T07:37:49.984Z,13.60
2023-03-05T07:38:53.862Z,11.48
2023-03-05T07:39:57.708Z,14.18
2023-03-05T07:41:08.653Z,12.65
2023-03-05T07:42:12.288Z,16.92
2023-03-05T07:43:28.852Z,12.95
2023-03-05T07:44:32.419Z,10.30
2023-03-05T07:45:36.448Z,10.43
2023-03-05T07:46:40.046Z,15.40
2023-03-05T07:47:43.541Z,12.13
2023-03-05T07:48:47.453Z,9.18
2023-03-05T07:49:51.326Z,11.73
2023-03-05T07:51:02.387Z,8.75
2023-03-05T07:52:06.874Z,13.48
2023-03-05T07:53:10.788Z,12.23
2023-03-05T07:54:14.801Z,12.13
2023-03-05T07:55:18.369Z,8.65
2023-03-05T07:56:32.509Z,12.98
2023-03-05T07:57:38.629Z,9.65
2023-03-05T07:58:42.477Z,8.60
2023-03-05T07:59:46.425Z,8.40
2023-03-05T08:00:49.953Z,10.70
2023-03-05T08:01:53.910Z,12.23
2023-03-05T08:02:57.804Z,8.70
2023-03-05T08:04:01.891Z,9.55
2023-03-05T08:05:05.692Z,8.25
2023-03-05T08:06:09.505Z,7.95
2023-03-05T08:07:16.492Z,8.85
2023-03-05T08:08:20.276Z,11.90
2023-03-05T08:09:24.193Z,8.52
2023-03-05T08:10:28.155Z,8.60
2023-03-05T08:11:32.049Z,8.48
2023-03-05T08:12:36.062Z,9.70
2023-03-05T08:13:40.230Z,10.40
2023-03-05T08:14:43.792Z,7.80
2023-03-05T08:15:47.314Z,7.97
2023-03-05T08:16:52.781Z,7.05
2023-03-05T08:17:56.550Z,4.63
2023-03-05T08:19:00.702Z,7.57
2023-03-05T08:20:06.448Z,5.93
2023-03-05T08:21:23.855Z,8.70
2023-03-05T08:22:28.013Z,4.50
2023-03-05T08:23:32.037Z,5.70
2023-03-05T08:24:35.639Z,7.20
2023-03-05T08:25:39.224Z,8.38
2023-03-05T08:26:43.239Z,5.13
2023-03-05T08:27:47.743Z,4.95
2023-03-05T08:28:52.211Z,4.88
2023-03-05T08:29:55.767Z,6.03
2023-03-05T08:30:59.268Z,5.78
2023-03-05T08:32:02.785Z,4.80
2023-03-05T08:33:06.444Z,6.00
2023-03-05T08:34:10.365Z,3.35
2023-03-05T08:35:14.001Z,6.00
2023-03-05T08:36:17.615Z,3.70
2023-03-05T08:37:21.437Z,4.57
2023-03-05T08:38:25.011Z,4.45
2023-03-05T08:39:31.035Z,9.82
2023-03-05T08:40:34.624Z,5.38
2023-03-05T08:41:38.229Z,5.32
2023-03-05T08:42:42.205Z,4.60
2023-03-05T08:43:45.792Z,6.05
2023-03-05T08:44:49.277Z,7.47
2023-03-05T08:45:54.480Z,5.22
2023-03-05T08:46:58.188Z,4.43
2023-03-05T08:48:02.013Z,5.85
2023-03-05T08:49:05.981Z,3.20
2023-03-05T08:50:10.703Z,4.05
2023-03-05T08:51:15.954Z,6.03
2023-03-05T08:52:19.845Z,5.60
2023-03-05T08:53:23.628Z,8.65
2023-03-05T08:54:27.488Z,4.85
2023-03-05T08:55:31.520Z,6.15
2023-03-05T08:56:37.942Z,3.63
2023-03-05T08:57:41.396Z,3.83
2023-03-05T08:58:45.471Z,5.07
2023-03-05T08:59:49.674Z,5.28
2023-03-05T09:00:53.223Z,6.18
2023-03-05T09:01:56.969Z,5.30
2023-03-05T09:03:00.678Z,4.18
2023-03-05T09:04:05.010Z,3.40
2023-03-05T09:05:09.160Z,4.28
2023-03-05T09:06:13.561Z,9.65
2023-03-05T09:07:17.535Z,3.65
2023-03-05T09:08:21.506Z,4.95
2023-03-05T09:09:25.464Z,4.63
2023-03-05T09:10:29.004Z,4.22
2023-03-05T09:11:36.884Z,3.30
2023-03-05T09:12:40.842Z,4.45
2023-03-05T09:13:44.571Z,5.00
2023-03-05T09:14:47.961Z,3.35
2023-03-05T09:16:01.693Z,3.80
2023-03-05T09:17:05.374Z,3.47
2023-03-05T09:18:09.609Z,3.85
2023-03-05T09:19:15.525Z,5.65
2023-03-05T09:20:19.748Z,3.88
2023-03-05T09:21:23.725Z,3.92
2023-03-05T09:22:27.609Z,3.60
2023-03-05T09:23:31.517Z,3.35
2023-03-05T09:24:35.209Z,5.50
2023-03-05T09:25:41.634Z,4.35
2023-03-05T09:26:45.536Z,5.55
2023-03-05T09:27:49.696Z,3.70
2023-03-05T09:28:53.179Z,3.33
2023-03-05T09:29:56.679Z,4.75
2023-03-05T09:31:04.411Z,4.43
2023-03-05T09:32:08.461Z,3.35
2023-03-05T09:33:11.986Z,3.13
2023-03-05T09:34:15.690Z,3.00
2023-03-05T09:35:19.315Z,4.55
2023-03-05T09:36:27.848Z,3.55
2023-03-05T09:37:31.620Z,2.30
2023-03-05T09:38:37.322Z,2.97
2023-03-05T09:39:41.285Z,3.15
2023-03-05T09:40:46.754Z,3.63
2023-03-05T09:42:10.328Z,2.40
2023-03-05T09:43:37.844Z,2.72
2023-03-05T09:44:57.195Z,2.55
2023-03-05T09:46:21.081Z,5.25
2023-03-05T09:47:46.194Z,2.60
2023-03-05T09:48:51.357Z,3.42
2023-03-05T09:50:24.243Z,2.40
2023-03-05T09:51:30.942Z,2.20
2023-03-05T09:52:42.416Z,2.50
2023-03-05T09:54:07.301Z,2.47
2023-03-05T09:55:16.032Z,1.92
2023-03-05T09:56:30.422Z,2.92
2023-03-05T09:57:40.547Z,2.45
2023-03-05T09:58:47.258Z,3.30
2023-03-05T09:59:57.477Z,2.92
2023-03-05T10:02:21.906Z,2.08
2023-03-05T10:03:52.598Z,2.25
2023-03-05T10:05:13.186Z,2.78
2023-03-05T10:06:23.028Z,2.35
2023-03-05T10:07:31.884Z,3.22
2023-03-05T10:08:50.126Z,3.13
2023-03-05T10:10:33.646Z,2.13
2023-03-05T10:11:55.254Z,3.13
2023-03-05T10:13:00.043Z,2.65
2023-03-05T10:14:03.846Z,3.13
2023-03-05T10:15:14.002Z,9.07
2023-03-05T10:16:40.587Z,7.35
2023-03-05T10:18:14.044Z,3.63
2023-03-05T10:19:45.269Z,2.05
2023-03-05T10:20:50.871Z,3.58
2023-03-05T10:22:14.602Z,2.03
2023-03-05T10:23:28.382Z,2.47
2023-03-05T10:24:56.681Z,1.50
2023-03-05T10:26:18.685Z,2.63
2023-03-05T10:27:45.874Z,2.20
2023-03-05T10:29:11.328Z,1.95
2023-03-05T10:30:43.137Z,3.30
2023-03-05T10:32:04.314Z,1.70
2023-03-05T10:33:33.650Z,1.58
2023-03-05T10:34:43.208Z,2.22
2023-03-05T10:35:56.030Z,3.30
2023-03-05T10:37:15.224Z,2.25
2023-03-05T10:38:47.392Z,2.25
2023-03-05T10:39:55.739Z,2.88
2023-03-05T10:41:02.179Z,3.13
2023-03-05T10:42:14.088Z,4.65
2023-03-05T10:43:23.047Z,2.47
2023-03-05T10:44:51.808Z,2.50
2023-03-05T10:45:56.020Z,2.95
2023-03-05T10:46:59.741Z,2.35
2023-03-05T10:48:21.421Z,2.53
2023-03-05T10:49:31.827Z,2.20
2023-03-05T10:51:45.156Z,2.60
2023-03-05T10:52:52.673Z,4.60
2023-03-05T10:53:58.087Z,2.80
2023-03-05T10:55:01.790Z,3.67
2023-03-05T10:56:06.470Z,3.60
2023-03-05T10:57:18.917Z,2.58
2023-03-05T10:58:24.628Z,2.42
2023-03-05T10:59:28.718Z,3.38
2023-03-05T11:00:33.246Z,3.10
2023-03-05T11:01:38.376Z,2.75
2023-03-05T11:03:05.299Z,2.65
2023-03-05T11:04:25.490Z,2.33
2023-03-05T11:05:44.517Z,3.30
2023-03-05T11:06:48.577Z,3.78
2023-03-05T11:07:52.127Z,3.53
2023-03-05T11:08:55.998Z,2.63
2023-03-05T11:10:03.319Z,3.08
2023-03-05T11:11:09.359Z,5.40
2023-03-05T11:12:17.768Z,3.10
2023-03-05T11:13:30.903Z,3.38
2023-03-05T11:14:34.560Z,3.03
2023-03-05T11:15:38.529Z,2.60
2023-03-05T11:16:49.043Z,4.05
2023-03-05T11:19:21.346Z,3.50
2023-03-05T11:20:34.395Z,3.50
2023-03-05T11:21:38.549Z,4.40
2023-03-05T11:22:42.104Z,2.63
2023-03-05T11:23:45.548Z,3.53
2023-03-05T11:25:28.006Z,5.68
2023-03-05T11:26:31.496Z,3.20
2023-03-05T11:27:48.964Z,2.88
2023-03-05T11:28:53.581Z,4.45
2023-03-05T11:29:57.002Z,4.38
2023-03-05T11:31:14.446Z,5.60
2023-03-05T11:32:25.988Z,5.43
2023-03-05T11:33:30.086Z,4.25
2023-03-05T11:34:35.966Z,4.10
2023-03-05T11:35:41.875Z,3.60
2023-03-05T11:37:07.176Z,3.03
2023-03-05T11:38:25.072Z,3.78
2023-03-05T11:39:30.980Z,4.50
2023-03-05T11:40:38.097Z,3.60
2023-03-05T11:41:45.288Z,5.65
2023-03-05T11:42:55.310Z,3.60
2023-03-05T11:43:59.708Z,3.20
2023-03-05T11:45:03.800Z,4.03
2023-03-05T11:46:07.440Z,4.43
2023-03-05T11:47:46.231Z,5.78
2023-03-05T11:48:50.401Z,5.53
2023-03-05T11:50:03.526Z,5.10
2023-03-05T11:51:37.689Z,4.80
2023-03-05T11:52:47.708Z,6.32
2023-03-05T11:53:53.382Z,6.15
2023-03-05T11:55:06.088Z,5.88
2023-03-05T11:56:37.357Z,3.80
2023-03-05T11:57:52.910Z,4.97
2023-03-05T11:59:08.219Z,4.25
2023-03-05T12:00:17.735Z,3.60
2023-03-05T12:01:25.112Z,4.87
2023-03-05T12:02:28.655Z,5.35
2023-03-05T12:03:37.038Z,5.15
2023-03-05T12:04:40.513Z,6.82
2023-03-05T12:05:49.656Z,5.95
2023-03-05T12:07:00.185Z,5.78
2023-03-05T12:08:04.259Z,6.05
2023-03-05T12:09:48.226Z,6.38
2023-03-05T12:10:52.359Z,6.43
2023-03-05T12:12:17.198Z,4.50
2023-03-05T12:13:41.438Z,4.43
2023-03-05T12:14:56.652Z,7.13
2023-03-05T12:16:18.488Z,3.58
2023-03-05T12:17:45.264Z,4.80
2023-03-05T12:19:18.474Z,4.15
2023-03-05T12:20:25.356Z,6.70
2023-03-05T12:21:38.288Z,5.57
2023-03-05T12:22:42.908Z,4.00
2023-03-05T12:23:52.782Z,5.18
2023-03-05T12:24:56.729Z,5.25
2023-03-05T12:26:02.246Z,5.82
2023-03-05T12:27:06.451Z,5.43
2023-03-05T12:28:18.458Z,7.57
2023-03-05T12:29:46.445Z,4.28
2023-03-05T12:30:50.321Z,4.65
2023-03-05T12:31:53.881Z,4.35
2023-03-05T12:32:57.698Z,5.35
2023-03-05T12:34:01.311Z,4.57
2023-03-05T12:35:26.228Z,5.82
2023-03-05T12:36:36.458Z,3.53
2023-03-05T12:37:45.841Z,6.03
2023-03-05T12:38:55.982Z,5.57
2023-03-05T12:41:27.999Z,5.57
2023-03-05T12:42:31.953Z,5.43
2023-03-05T12:43:35.877Z,5.05
2023-03-05T12:44:40.318Z,3.88
2023-03-05T12:45:44.216Z,6.72
2023-03-05T12:47:24.042Z,5.43
2023-03-05T12:48:27.587Z,9.20
2023-03-05T12:49:34.927Z,4.90
2023-03-05T12:50:38.826Z,6.72
2023-03-05T12:51:42.479Z,6.03
2023-03-05T12:52:46.302Z,8.60
2023-03-05T12:53:52.225Z,5.30
2023-03-05T12:55:16.085Z,6.45
2023-03-05T12:56:25.539Z,7.70
2023-03-05T12:57:30.045Z,10.63
2023-03-05T12:58:40.406Z,7.43
2023-03-05T13:00:59.051Z,9.45
2023-03-05T13:02:04.751Z,7.47
2023-03-05T13:03:10.634Z,5.80
2023-03-05T13:04:34.602Z,5.30
2023-03-05T13:05:38.568Z,3.20
2023-03-05T13:06:42.380Z,4.70
2023-03-05T13:07:46.042Z,3.97
2023-03-05T13:09:01.626Z,5.90
2023-03-05T13:10:05.344Z,5.35
2023-03-05T13:11:19.784Z,5.15
2023-03-05T13:12:23.536Z,4.97
2023-03-05T13:13:28.330Z,4.30
2023-03-05T13:14:35.274Z,5.10
2023-03-05T13:15:38.762Z,5.00
2023-03-05T13:16:42.721Z,4.10
2023-03-05T13:18:08.451Z,5.07
2023-03-05T13:19:18.001Z,5.90
2023-03-05T13:20:40.894Z,4.38
2023-03-05T13:21:44.817Z,7.60
2023-03-05T13:22:48.475Z,4.00
2023-03-05T13:24:00.193Z,7.47
2023-03-05T13:25:18.048Z,5.53
2023-03-05T13:26:21.767Z,6.55
2023-03-05T13:27:32.123Z,6.28
2023-03-05T13:29:46.148Z,5.70
2023-03-05T13:30:54.029Z,6.28
2023-03-05T13:32:17.798Z,6.53
2023-03-05T13:33:39.747Z,6.43
2023-03-05T13:34:47.500Z,8.00
2023-03-05T13:35:53.018Z,7.18
2023-03-05T13:36:58.643Z,7.43
2023-03-05T13:38:02.681Z,7.82
2023-03-05T13:39:07.702Z,5.65
2023-03-05T13:40:17.922Z,4.95
2023-03-05T13:41:26.501Z,6.13
2023-03-05T13:42:35.518Z,4.97
2023-03-05T13:43:46.171Z,9.13
2023-03-05T13:45:25.252Z,8.05
2023-03-05T13:46:33.885Z,5.95
2023-03-05T13:47:37.485Z,7.57
2023-03-05T13:48:41.080Z,11.73
2023-03-05T13:49:45.140Z,5.57
2023-03-05T13:50:54.342Z,6.55
2023-03-05T13:51:59.833Z,8.20
2023-03-05T13:53:22.933Z,5.28
2023-03-05T13:54:27.109Z,5.93
2023-03-05T13:55:30.712Z,10.65
2023-03-05T13:56:34.240Z,4.95
2023-03-05T13:57:40.463Z,4.55
2023-03-05T13:58:54.046Z,14.52
2023-03-05T13:59:58.022Z,16.92
2023-03-05T14:01:28.721Z,10.02
2023-03-05T14:02:33.459Z,9.32
2023-03-05T14:03:37.648Z,9.18
2023-03-05T14:04:43.838Z,9.23
2023-03-05T14:05:47.957Z,10.65
2023-03-05T14:07:27.994Z,7.57
2023-03-05T14:08:31.979Z,9.88
2023-03-05T14:09:38.888Z,11.52
2023-03-05T14:10:46.389Z,10.05
2023-03-05T14:12:06.799Z,14.98
2023-03-05T14:13:21.092Z,13.50
2023-03-05T14:14:25.099Z,16.98
2023-03-05T14:15:38.048Z,10.30
2023-03-05T14:16:41.659Z,9.98
2023-03-05T14:17:45.819Z,7.95
2023-03-05T14:18:57.419Z,9.00
2023-03-05T14:20:11.272Z,7.68
2023-03-05T14:21:15.233Z,10.18
2023-03-05T14:22:40.504Z,5.93
2023-03-05T14:23:48.720Z,6.50
2023-03-05T14:24:53.248Z,5.70
2023-03-05T14:26:18.832Z,8.63
2023-03-05T14:27:22.814Z,6.82
2023-03-05T14:28:28.959Z,7.35
2023-03-05T14:29:32.964Z,6.68
2023-03-05T14:30:37.163Z,5.63
2023-03-05T14:31:51.751Z,7.35
2023-03-05T14:32:56.709Z,12.88
2023-03-05T14:34:04.654Z,16.15
2023-03-05T14:35:08.790Z,32.80
2023-03-05T14:36:12.741Z,17.88
2023-03-05T14:37:38.527Z,25.33
2023-03-05T14:38:42.818Z,33.10
2023-03-05T14:39:50.250Z,22.33
2023-03-05T14:40:53.654Z,8.82
2023-03-05T14:41:57.770Z,20.92
2023-03-05T14:43:02.840Z,23.40